createdAt,value
2023-03-12T00:00:41.959Z,-4.81
2023-03-12T00:01:40.230Z,-4.86
2023-03-12T00:02:39.676Z,-4.89
2023-03-12T00:03:40.496Z,-4.84
2023-03-12T00:04:40.320Z,-4.82
2023-03-12T00:05:41.910Z,-4.82
2023-03-12T00:06:41.283Z,-4.81
2023-03-12T00:07:41.602Z,-4.83
2023-03-12T00:08:42.425Z,-4.83
2023-03-12T00:09:42.559Z,-4.85
2023-03-12T00:10:43.147Z,-4.86
2023-03-12T00:11:43.176Z,-4.84
2023-03-12T00:12:43.778Z,-4.83
2023-03-12T00:13:48.909Z,-4.8
2023-03-12T00:14:46.355Z,-4.83
2023-03-12T00:15:46.609Z,-4.86
2023-03-12T00:16:46.983Z,-4.92
2023-03-12T00:17:47.805Z,-4.92
2023-03-12T00:18:52.846Z,-4.88
2023-03-12T00:19:54.161Z,-4.79
2023-03-12T00:20:55.616Z,-4.81
2023-03-12T00:21:53.054Z,-4.81
2023-03-12T00:22:53.375Z,-4.73
2023-03-12T00:23:53.890Z,-4.75
2023-03-12T00:24:55.937Z,-4.78
2023-03-12T00:25:54.814Z,-4.79
2023-03-12T00:26:55.031Z,-4.79
2023-03-12T00:27:55.458Z,-4.84
2023-03-12T00:28:55.872Z,-4.86
2023-03-12T00:29:56.286Z,-4.82
2023-03-12T00:30:57.283Z,-4.79
2023-03-12T00:31:56.873Z,-4.79
2023-03-12T00:32:57.532Z,-4.78
2023-03-12T00:33:57.842Z,-4.85
2023-03-12T00:34:58.772Z,-4.81
2023-03-12T00:36:00.674Z,-4.82
2023-03-12T00:36:58.905Z,-4.8
2023-03-12T00:37:59.303Z,-4.79
2023-03-12T00:39:00.561Z,-4.77
2023-03-12T00:40:01.049Z,-4.75
2023-03-12T00:41:01.164Z,-4.73
2023-03-12T00:42:01.677Z,-4.78
2023-03-12T00:43:02.007Z,-4.8
2023-03-12T00:44:03.560Z,-4.77
2023-03-12T00:45:02.834Z,-4.73
2023-03-12T00:46:03.202Z,-4.69
2023-03-12T00:47:03.870Z,-4.71
2023-03-12T00:48:04.387Z,-4.7
2023-03-12T00:49:04.796Z,-4.72
2023-03-12T00:50:05.718Z,-4.76
2023-03-12T00:51:05.542Z,-4.72
2023-03-12T00:52:06.051Z,-4.71
2023-03-12T00:53:05.926Z,-4.72
2023-03-12T00:54:06.373Z,-4.78
2023-03-12T00:55:07.358Z,-4.84
2023-03-12T00:56:07.717Z,-4.77
2023-03-12T00:57:07.722Z,-4.8
2023-03-12T00:58:07.726Z,-4.75
2023-03-12T00:59:08.359Z,-4.78
2023-03-12T01:00:10.643Z,-4.75
2023-03-12T01:01:09.976Z,-4.77
2023-03-12T01:02:09.661Z,-4.7
2023-03-12T01:03:09.913Z,-4.71
2023-03-12T01:04:10.423Z,-4.76
2023-03-12T01:05:12.591Z,-4.83
2023-03-12T01:06:11.055Z,-4.76
2023-03-12T01:07:11.373Z,-4.68
2023-03-12T01:08:12.211Z,-4.7
2023-03-12T01:09:12.415Z,-4.72
2023-03-12T01:10:15.456Z,-4.72
2023-03-12T01:11:18.063Z,-4.69
2023-03-12T01:12:15.259Z,-4.67
2023-03-12T01:13:16.014Z,-4.68
2023-03-12T01:14:16.221Z,-4.7
2023-03-12T01:15:18.290Z,-4.7
2023-03-12T01:16:17.117Z,-4.64
2023-03-12T01:17:17.393Z,-4.64
2023-03-12T01:18:18.422Z,-4.57
2023-03-12T01:19:19.544Z,-4.61
2023-03-12T01:20:19.617Z,-4.65
2023-03-12T01:21:19.661Z,-4.65
2023-03-12T01:22:20.144Z,-4.63
2023-03-12T01:23:20.605Z,-4.66
2023-03-12T01:24:20.922Z,-4.65
2023-03-12T01:25:21.331Z,-4.65
2023-03-12T01:26:21.741Z,-4.63
2023-03-12T01:27:22.161Z,-4.65
2023-03-12T01:28:24.014Z,-4.66
2023-03-12T01:29:22.852Z,-4.71
2023-03-12T01:30:23.204Z,-4.77
2023-03-12T01:31:23.611Z,-4.74
2023-03-12T01:32:23.964Z,-4.73
2023-03-12T01:33:24.413Z,-4.7
2023-03-12T01:34:24.872Z,-4.75
2023-03-12T01:35:25.950Z,-4.79
2023-03-12T01:36:28.886Z,-4.77
2023-03-12T01:37:27.560Z,-4.86
2023-03-12T01:38:26.952Z,-4.82
2023-03-12T01:39:27.058Z,-4.83
2023-03-12T01:40:27.378Z,-4.81
2023-03-12T01:41:29.516Z,-4.77
2023-03-12T01:42:28.312Z,-4.84
2023-03-12T01:43:31.688Z,-4.89
2023-03-12T01:44:30.173Z,-4.82
2023-03-12T01:46:39.386Z,-4.85
2023-03-12T01:47:36.841Z,-4.88
2023-03-12T01:48:42.774Z,-4.83
2023-03-12T01:49:40.328Z,-4.85
2023-03-12T01:50:40.534Z,-4.87
2023-03-12T01:51:50.271Z,-4.9
2023-03-12T01:52:42.700Z,-4.89
2023-03-12T01:53:47.209Z,-4.84
2023-03-12T01:55:48.150Z,-4.83
2023-03-12T01:56:49.082Z,-4.86
2023-03-12T01:58:56.276Z,-4.91
2023-03-12T02:00:56.521Z,-4.85
2023-03-12T02:01:57.517Z,-4.85
2023-03-12T02:04:02.300Z,-4.86
2023-03-12T02:08:13.337Z,-4.92
2023-03-12T02:12:19.901Z,-4.78
2023-03-12T02:13:20.630Z,-4.81
2023-03-12T02:14:20.937Z,-4.84
2023-03-12T02:15:21.055Z,-4.85
2023-03-12T02:16:21.602Z,-4.82
2023-03-12T02:17:21.908Z,-4.87
2023-03-12T02:18:22.298Z,-4.85
2023-03-12T02:21:27.541Z,-4.83
2023-03-12T02:22:25.288Z,-4.8
2023-03-12T02:24:38.614Z,-4.83
2023-03-12T02:25:41.083Z,-4.87
2023-03-12T02:26:35.764Z,-4.87
2023-03-12T02:27:37.005Z,-4.89
2023-03-12T02:28:36.390Z,-4.86
2023-03-12T02:29:37.526Z,-4.87
2023-03-12T02:30:36.907Z,-4.93
2023-03-12T02:31:43.094Z,-4.95
2023-03-12T02:32:38.786Z,-4.94
2023-03-12T02:33:36.216Z,-4.88
2023-03-12T02:34:36.447Z,-4.92
2023-03-12T02:35:37.511Z,-5.05
2023-03-12T02:36:37.893Z,-5.06
2023-03-12T02:38:45.189Z,-4.99
2023-03-12T02:39:44.963Z,-5
2023-03-12T02:40:47.741Z,-4.97
2023-03-12T02:42:47.446Z,-5.03
2023-03-12T02:44:51.974Z,-5.07
2023-03-12T02:45:55.589Z,-5.1
2023-03-12T02:46:56.072Z,-5.1
2023-03-12T02:47:54.610Z,-5.1
2023-03-12T02:48:55.241Z,-5.14
2023-03-12T02:49:54.151Z,-5.17
2023-03-12T02:50:54.560Z,-5.18
2023-03-12T02:51:54.946Z,-5.19
2023-03-12T02:52:55.402Z,-5.16
2023-03-12T02:53:55.840Z,-5.21
2023-03-12T02:54:56.121Z,-5.26
2023-03-12T02:55:56.441Z,-5.28
2023-03-12T02:56:57.271Z,-5.28
2023-03-12T02:57:57.382Z,-5.3
2023-03-12T02:58:58.098Z,-5.33
2023-03-12T02:59:58.218Z,-5.35
2023-03-12T03:00:58.578Z,-5.31
2023-03-12T03:02:00.213Z,-5.37
2023-03-12T03:03:00.178Z,-5.51
2023-03-12T03:04:00.862Z,-5.49
2023-03-12T03:05:00.090Z,-5.47
2023-03-12T03:06:00.507Z,-5.5
2023-03-12T03:07:01.504Z,-5.52
2023-03-12T03:08:01.332Z,-5.5
2023-03-12T03:09:02.072Z,-5.53
2023-03-12T03:10:02.676Z,-5.48
2023-03-12T03:11:02.380Z,-5.5
2023-03-12T03:12:03.005Z,-5.65
2023-03-12T03:13:03.208Z,-5.69
2023-03-12T03:14:03.529Z,-5.68
2023-03-12T03:15:04.947Z,-5.65
2023-03-12T03:16:05.057Z,-5.71
2023-03-12T03:17:05.160Z,-5.69
2023-03-12T03:18:05.463Z,-5.76
2023-03-12T03:19:06.270Z,-5.71
2023-03-12T03:20:08.030Z,-5.8
2023-03-12T03:21:08.615Z,-5.77
2023-03-12T03:22:06.644Z,-5.81
2023-03-12T03:23:07.311Z,-5.89
2023-03-12T03:24:08.112Z,-5.94
2023-03-12T03:25:10.150Z,-5.91
2023-03-12T03:26:08.445Z,-5.94
2023-03-12T03:27:08.734Z,-5.98
2023-03-12T03:28:09.055Z,-5.99
2023-03-12T03:29:09.568Z,-6.04
2023-03-12T03:30:10.909Z,-6.03
2023-03-12T03:31:10.236Z,-5.95
2023-03-12T03:32:10.521Z,-5.87
2023-03-12T03:33:10.928Z,-5.85
2023-03-12T03:34:11.925Z,-5.86
2023-03-12T03:35:12.481Z,-5.88
2023-03-12T03:36:14.120Z,-5.94
2023-03-12T03:37:12.897Z,-5.89
2023-03-12T03:38:13.582Z,-5.86
2023-03-12T03:39:13.825Z,-5.81
2023-03-12T03:40:14.036Z,-5.82
2023-03-12T03:41:14.556Z,-5.81
2023-03-12T03:42:14.876Z,-5.77
2023-03-12T03:43:15.390Z,-5.78
2023-03-12T03:44:15.705Z,-5.74
2023-03-12T03:45:16.340Z,-5.75
2023-03-12T03:46:16.933Z,-5.8
2023-03-12T03:47:16.852Z,-5.8
2023-03-12T03:48:17.885Z,-5.77
2023-03-12T03:49:17.683Z,-5.77
2023-03-12T03:50:18.206Z,-5.79
2023-03-12T03:51:18.918Z,-5.84
2023-03-12T03:52:18.737Z,-5.81
2023-03-12T03:53:19.980Z,-5.78
2023-03-12T03:54:19.979Z,-5.81
2023-03-12T03:55:19.792Z,-5.79
2023-03-12T03:56:20.604Z,-5.81
2023-03-12T03:57:20.725Z,-5.84
2023-03-12T03:58:21.430Z,-5.82
2023-03-12T03:59:21.548Z,-5.8
2023-03-12T04:00:22.265Z,-5.81
2023-03-12T04:01:22.287Z,-5.88
2023-03-12T04:02:22.790Z,-5.85
2023-03-12T04:03:23.072Z,-5.84
2023-03-12T04:04:23.421Z,-5.87
2023-03-12T04:05:24.030Z,-5.88
2023-03-12T04:06:24.161Z,-5.92
2023-03-12T04:07:24.515Z,-5.91
2023-03-12T04:08:25.080Z,-5.88
2023-03-12T04:09:25.201Z,-5.83
2023-03-12T04:10:25.632Z,-5.86
2023-03-12T04:11:26.326Z,-5.83
2023-03-12T04:12:26.409Z,-5.79
2023-03-12T04:13:26.865Z,-5.82
2023-03-12T04:14:27.182Z,-5.82
2023-03-12T04:15:27.595Z,-5.82
2023-03-12T04:16:28.559Z,-5.8
2023-03-12T04:17:28.324Z,-5.72
2023-03-12T04:18:28.896Z,-5.69
2023-03-12T04:19:29.158Z,-5.68
2023-03-12T04:20:29.571Z,-5.65
2023-03-12T04:21:29.849Z,-5.66
2023-03-12T04:22:30.306Z,-5.67
2023-03-12T04:23:30.718Z,-5.61
2023-03-12T04:24:30.990Z,-5.61
2023-03-12T04:25:31.551Z,-5.6
2023-03-12T04:26:31.868Z,-5.61
2023-03-12T04:27:32.244Z,-5.63
2023-03-12T04:28:34.230Z,-5.63
2023-03-12T04:29:33.014Z,-5.66
2023-03-12T04:30:33.636Z,-5.65
2023-03-12T04:31:33.861Z,-5.61
2023-03-12T04:32:34.350Z,-5.6
2023-03-12T04:33:37.960Z,-5.59
2023-03-12T04:34:35.306Z,-5.58
2023-03-12T04:35:36.095Z,-5.56
2023-03-12T04:36:39.406Z,-5.65
2023-03-12T04:37:36.729Z,-5.69
2023-03-12T04:38:37.265Z,-5.7
2023-03-12T04:39:37.584Z,-5.66
2023-03-12T04:40:38.109Z,-5.66
2023-03-12T04:41:39.158Z,-5.65
2023-03-12T04:42:39.855Z,-5.59
2023-03-12T04:43:39.869Z,-5.59
2023-03-12T04:44:40.392Z,-5.62
2023-03-12T04:45:40.504Z,-5.65
2023-03-12T04:46:41.400Z,-5.63
2023-03-12T04:47:42.355Z,-5.68
2023-03-12T04:48:41.837Z,-5.62
2023-03-12T04:49:42.382Z,-5.52
2023-03-12T04:50:42.424Z,-5.53
2023-03-12T04:51:43.101Z,-5.5
2023-03-12T04:52:43.207Z,-5.53
2023-03-12T04:53:43.764Z,-5.47
2023-03-12T04:54:47.836Z,-5.43
2023-03-12T04:55:45.485Z,-5.47
2023-03-12T04:56:45.790Z,-5.48
2023-03-12T04:57:46.324Z,-5.5
2023-03-12T04:58:46.733Z,-5.49
2023-03-12T04:59:47.100Z,-5.56
2023-03-12T05:00:49.017Z,-5.53
2023-03-12T05:01:47.985Z,-5.52
2023-03-12T05:02:48.401Z,-5.49
2023-03-12T05:03:48.776Z,-5.52
2023-03-12T05:04:49.145Z,-5.53
2023-03-12T05:05:49.439Z,-5.47
2023-03-12T05:06:49.861Z,-5.38
2023-03-12T05:07:50.175Z,-5.38
2023-03-12T05:08:51.313Z,-5.35
2023-03-12T05:09:51.218Z,-5.37
2023-03-12T05:10:51.316Z,-5.3
2023-03-12T05:11:51.744Z,-5.32
2023-03-12T05:12:52.121Z,-5.32
2023-03-12T05:13:52.776Z,-5.3
2023-03-12T05:14:52.941Z,-5.26
2023-03-12T05:15:53.581Z,-5.22
2023-03-12T05:16:53.668Z,-5.19
2023-03-12T05:17:54.948Z,-5.28
2023-03-12T05:18:54.549Z,-5.28
2023-03-12T05:19:55.573Z,-5.22
2023-03-12T05:21:59.092Z,-5.22
2023-03-12T05:22:59.511Z,-5.24
2023-03-12T05:24:01.232Z,-5.25
2023-03-12T05:25:00.341Z,-5.18
2023-03-12T05:26:01.054Z,-5.14
2023-03-12T05:27:01.008Z,-5.16
2023-03-12T05:28:01.462Z,-5.13
2023-03-12T05:29:02.394Z,-5.15
2023-03-12T05:30:03.030Z,-5.22
2023-03-12T05:31:09.441Z,-5.19
2023-03-12T05:32:07.599Z,-5.23
2023-03-12T05:33:07.398Z,-5.17
2023-03-12T05:34:07.659Z,-5.12
2023-03-12T05:35:08.791Z,-5.13
2023-03-12T05:36:09.366Z,-5.14
2023-03-12T05:37:09.936Z,-5.2
2023-03-12T05:38:09.414Z,-5.17
2023-03-12T05:39:09.725Z,-5.1
2023-03-12T05:40:12.187Z,-5.06
2023-03-12T05:42:15.483Z,-5.02
2023-03-12T05:43:15.192Z,-5
2023-03-12T05:44:15.702Z,-5.01
2023-03-12T05:45:16.225Z,-5.03
2023-03-12T05:46:16.490Z,-5.05
2023-03-12T05:47:17.065Z,-5
2023-03-12T05:48:17.108Z,-4.93
2023-03-12T05:49:18.203Z,-4.97
2023-03-12T05:50:18.513Z,-4.97
2023-03-12T05:51:18.389Z,-4.95
2023-03-12T05:52:18.725Z,-4.92
2023-03-12T05:53:19.044Z,-4.85
2023-03-12T05:54:19.766Z,-4.81
2023-03-12T05:55:19.978Z,-4.78
2023-03-12T05:56:20.347Z,-4.83
2023-03-12T05:57:20.772Z,-4.87
2023-03-12T05:58:21.880Z,-4.85
2023-03-12T05:59:21.647Z,-4.8
2023-03-12T06:00:22.546Z,-4.72
2023-03-12T06:01:25.409Z,-4.66
2023-03-12T06:02:23.025Z,-4.66
2023-03-12T06:03:23.411Z,-4.66
2023-03-12T06:04:23.511Z,-4.6
2023-03-12T06:05:24.255Z,-4.58
2023-03-12T06:06:24.685Z,-4.59
2023-03-12T06:07:25.065Z,-4.75
2023-03-12T06:08:25.418Z,-4.71
2023-03-12T06:09:25.595Z,-4.65
2023-03-12T06:10:27.963Z,-4.51
2023-03-12T06:11:26.330Z,-4.61
2023-03-12T06:12:26.747Z,-4.6
2023-03-12T06:13:27.358Z,-4.69
2023-03-12T06:14:27.575Z,-4.54
2023-03-12T06:15:28.104Z,-4.51
2023-03-12T06:16:28.656Z,-4.49
2023-03-12T06:17:30.044Z,-4.47
2023-03-12T06:18:29.198Z,-4.43
2023-03-12T06:19:29.644Z,-4.41
2023-03-12T06:20:30.141Z,-4.62
2023-03-12T06:21:32.743Z,-4.53
2023-03-12T06:22:30.998Z,-4.52
2023-03-12T06:23:31.214Z,-4.46
2023-03-12T06:24:32.348Z,-4.53
2023-03-12T06:25:32.759Z,-4.46
2023-03-12T06:26:33.076Z,-4.47
2023-03-12T06:27:33.836Z,-4.45
2023-03-12T06:28:34.422Z,-4.38
2023-03-12T06:29:34.223Z,-4.41
2023-03-12T06:30:34.742Z,-4.38
2023-03-12T06:31:38.116Z,-4.34
2023-03-12T06:32:36.397Z,-4.36
2023-03-12T06:33:36.500Z,-4.36
2023-03-12T06:34:38.460Z,-4.34
2023-03-12T06:35:37.519Z,-4.22
2023-03-12T06:36:37.745Z,-4.18
2023-03-12T06:37:41.550Z,-4.31
2023-03-12T06:38:41.017Z,-4.37
2023-03-12T06:39:39.644Z,-4.27
2023-03-12T06:40:40.134Z,-4.38
2023-03-12T06:41:40.046Z,-4.41
2023-03-12T06:42:40.453Z,-4.57
2023-03-12T06:43:41.583Z,-4.7
2023-03-12T06:44:41.392Z,-4.58
2023-03-12T06:45:41.695Z,-4.51
2023-03-12T06:46:42.880Z,-4.42
2023-03-12T06:47:42.548Z,-4.3
2023-03-12T06:48:43.675Z,-4.4
2023-03-12T06:49:43.370Z,-4.3
2023-03-12T06:50:43.956Z,-4.37
2023-03-12T06:51:44.184Z,-4.5
2023-03-12T06:52:44.615Z,-4.52
2023-03-12T06:53:45.807Z,-4.4
2023-03-12T06:54:45.304Z,-4.35
2023-03-12T06:55:46.697Z,-4.48
2023-03-12T06:56:46.201Z,-4.65
2023-03-12T06:57:46.596Z,-4.73
2023-03-12T06:58:46.923Z,-4.78
2023-03-12T06:59:50.373Z,-4.76
2023-03-12T07:00:48.169Z,-4.72
2023-03-12T07:01:49.084Z,-4.62
2023-03-12T07:02:48.780Z,-4.38
2023-03-12T07:03:49.091Z,-4.36
2023-03-12T07:04:49.665Z,-4.49
2023-03-12T07:05:51.423Z,-4.49
2023-03-12T07:06:50.474Z,-4.42
2023-03-12T07:07:51.525Z,-4.4
2023-03-12T07:08:52.112Z,-4.49
2023-03-12T07:09:51.697Z,-4.5
2023-03-12T07:10:52.132Z,-4.58
2023-03-12T07:11:52.449Z,-4.38
2023-03-12T07:12:52.749Z,-4.28
2023-03-12T07:13:53.268Z,-4.17
2023-03-12T07:14:53.607Z,-3.86
2023-03-12T07:15:54.232Z,-3.82
2023-03-12T07:16:55.636Z,-4.02
2023-03-12T07:17:54.804Z,-3.96
2023-03-12T07:18:55.158Z,-3.9
2023-03-12T07:19:55.664Z,-3.89
2023-03-12T07:20:56.188Z,-3.89
2023-03-12T07:21:57.272Z,-3.88
2023-03-12T07:22:57.020Z,-3.76
2023-03-12T07:23:57.279Z,-3.62
2023-03-12T07:24:57.859Z,-3.68
2023-03-12T07:25:58.165Z,-3.75
2023-03-12T07:26:58.371Z,-3.75
2023-03-12T07:27:58.902Z,-3.72
2023-03-12T07:28:59.196Z,-3.88
2023-03-12T07:29:59.725Z,-4.02
2023-03-12T07:31:02.599Z,-4.04
2023-03-12T07:32:00.748Z,-4.09
2023-03-12T07:33:05.571Z,-4.11
2023-03-12T07:34:03.232Z,-4.33
2023-03-12T07:35:05.598Z,-4.37
2023-03-12T07:36:05.265Z,-4.06
2023-03-12T07:37:05.516Z,-3.92
2023-03-12T07:38:06.816Z,-3.9
2023-03-12T07:39:05.723Z,-3.92
2023-03-12T07:40:07.830Z,-3.81
2023-03-12T07:41:06.582Z,-3.66
2023-03-12T07:42:07.441Z,-3.72
2023-03-12T07:43:07.431Z,-3.81
2023-03-12T07:44:08.143Z,-3.78
2023-03-12T07:45:08.903Z,-3.82
2023-03-12T07:46:08.614Z,-3.83
2023-03-12T07:47:22.848Z,-3.9
2023-03-12T07:48:10.761Z,-4
2023-03-12T07:49:11.123Z,-3.95
2023-03-12T07:50:12.540Z,-3.76
2023-03-12T07:51:12.761Z,-3.88
2023-03-12T07:52:12.291Z,-3.75
2023-03-12T07:53:12.879Z,-3.5
2023-03-12T07:54:13.102Z,-3.58
2023-03-12T07:55:14.042Z,-3.64
2023-03-12T07:56:14.211Z,-3.74
2023-03-12T07:57:14.589Z,-3.57
2023-03-12T07:58:16.482Z,-3.58
2023-03-12T07:59:15.386Z,-3.54
2023-03-12T08:00:16.265Z,-3.61
2023-03-12T08:01:16.285Z,-3.54
2023-03-12T08:02:16.429Z,-3.51
2023-03-12T08:03:17.162Z,-3.38
2023-03-12T08:04:17.235Z,-3.9
2023-03-12T08:05:17.977Z,-4.12
2023-03-12T08:06:18.156Z,-4.01
2023-03-12T08:07:18.577Z,-4.01
2023-03-12T08:08:18.849Z,-4
2023-03-12T08:09:19.332Z,-4.03
2023-03-12T08:10:21.167Z,-4.06
2023-03-12T08:11:20.985Z,-4.15
2023-03-12T08:12:20.492Z,-3.77
2023-03-12T08:13:21.314Z,-3.86
2023-03-12T08:14:21.326Z,-3.75
2023-03-12T08:15:21.851Z,-3.69
2023-03-12T08:16:22.180Z,-3.82
2023-03-12T08:17:22.456Z,-3.68
2023-03-12T08:18:23.301Z,-3.82
2023-03-12T08:19:23.400Z,-3.73
2023-03-12T08:20:23.713Z,-3.67
2023-03-12T08:21:24.434Z,-3.5
2023-03-12T08:22:24.439Z,-3.6
2023-03-12T08:23:25.264Z,-3.5
2023-03-12T08:24:25.471Z,-3.61
2023-03-12T08:25:25.799Z,-3.72
2023-03-12T08:26:26.221Z,-3.54
2023-03-12T08:27:26.526Z,-3.41
2023-03-12T08:28:27.347Z,-3.6
2023-03-12T08:29:27.550Z,-3.54
2023-03-12T08:30:30.165Z,-3.36
2023-03-12T08:31:28.847Z,-3.48
2023-03-12T08:32:29.013Z,-3.66
2023-03-12T08:33:28.914Z,-3.58
2023-03-12T08:34:29.509Z,-3.69
2023-03-12T08:35:30.244Z,-3.7
2023-03-12T08:36:30.469Z,-3.49
2023-03-12T08:37:30.890Z,-3.23
2023-03-12T08:38:32.128Z,-3.02
2023-03-12T08:39:31.660Z,-2.98
2023-03-12T08:40:31.943Z,-2.95
2023-03-12T08:41:32.352Z,-2.97
2023-03-12T08:42:32.660Z,-3.08
2023-03-12T08:43:33.288Z,-2.98
2023-03-12T08:44:33.810Z,-3.08
2023-03-12T08:45:33.945Z,-3.47
2023-03-12T08:46:34.443Z,-3.55
2023-03-12T08:47:35.051Z,-3.41
2023-03-12T08:48:35.068Z,-3.33
2023-03-12T08:49:35.433Z,-3.25
2023-03-12T08:50:37.527Z,-3.22
2023-03-12T08:51:37.125Z,-3.12
2023-03-12T08:52:36.738Z,-3.13
2023-03-12T08:53:37.285Z,-3.02
2023-03-12T08:54:37.604Z,-3.14
2023-03-12T08:55:37.977Z,-3.01
2023-03-12T08:56:41.474Z,-2.98
2023-03-12T08:57:39.999Z,-3.02
2023-03-12T08:58:39.336Z,-2.69
2023-03-12T08:59:39.645Z,-2.85
2023-03-12T09:00:40.166Z,-2.77
2023-03-12T09:01:43.643Z,-2.54
2023-03-12T09:02:43.934Z,-2.41
2023-03-12T09:03:42.037Z,-2.84
2023-03-12T09:04:42.144Z,-2.61
2023-03-12T09:05:43.061Z,-2.83
2023-03-12T09:06:43.376Z,-3.16
2023-03-12T09:07:43.344Z,-3.1
2023-03-12T09:08:45.039Z,-2.97
2023-03-12T09:09:44.620Z,-2.89
2023-03-12T09:10:50.272Z,-2.8
2023-03-12T09:11:47.721Z,-2.84
2023-03-12T09:12:48.129Z,-2.95
2023-03-12T09:14:28.132Z,-3.08
2023-03-12T09:15:03.092Z,-2.91
2023-03-12T09:15:51.164Z,-2.56
2023-03-12T09:16:51.850Z,-2.65
2023-03-12T09:17:52.565Z,-2.72
2023-03-12T09:18:52.878Z,-2.57
2023-03-12T09:19:52.972Z,-2.54
2023-03-12T09:20:53.401Z,-2.51
2023-03-12T09:21:54.011Z,-2.47
2023-03-12T09:22:54.098Z,-2.36
2023-03-12T09:23:54.677Z,-2.27
2023-03-12T09:24:55.375Z,-2.21
2023-03-12T09:25:55.861Z,-1.92
2023-03-12T09:26:58.675Z,-1.52
2023-03-12T09:27:56.168Z,-1.4
2023-03-12T09:28:56.420Z,-1.66
2023-03-12T09:30:00.456Z,-1.45
2023-03-12T09:31:02.151Z,-1.59
2023-03-12T09:31:59.619Z,-1.45
2023-03-12T09:32:59.990Z,-1.37
2023-03-12T09:34:00.657Z,-1.45
2023-03-12T09:35:00.559Z,-1.5
2023-03-12T09:36:01.174Z,-1.73
2023-03-12T09:37:01.293Z,-1.72
2023-03-12T09:38:01.451Z,-2.09
2023-03-12T09:39:02.734Z,-2.06
2023-03-12T09:40:03.351Z,-2.07
2023-03-12T09:41:05.513Z,-1.86
2023-03-12T09:42:06.588Z,-1.58
2023-03-12T09:43:09.827Z,-1.88
2023-03-12T09:46:26.756Z,-1.9
2023-03-12T09:47:30.133Z,-1.99
2023-03-12T09:48:34.240Z,-1.75
2023-03-12T09:53:46.259Z,-1.93
2023-03-12T09:54:52.707Z,-1.59
2023-03-12T09:55:49.597Z,-1.51
2023-03-12T09:56:47.283Z,-1.57
2023-03-12T09:57:49.542Z,-1.6
2023-03-12T09:58:49.867Z,-1.92
2023-03-12T09:59:47.922Z,-1.8
2023-03-12T10:00:48.353Z,-1.53
2023-03-12T10:01:54.809Z,-1.83
2023-03-12T10:27:52.076Z,-1.08
2023-03-12T10:29:56.226Z,-1.38
2023-03-12T10:33:02.896Z,-1.69
2023-03-12T10:34:01.571Z,-1.98
2023-03-12T10:35:04.845Z,-1.92
2023-03-12T10:36:06.337Z,-1.84
2023-03-12T10:38:13.370Z,-1.22
2023-03-12T10:39:16.051Z,-0.98
2023-03-12T10:43:19.546Z,-1.4
2023-03-12T10:44:25.084Z,-1.25
2023-03-12T10:48:27.067Z,-1.61
2023-03-12T10:50:34.351Z,-1.69
2023-03-12T10:51:31.591Z,-2.01
2023-03-12T10:52:32.005Z,-1.92
2023-03-12T10:54:38.158Z,-1.65
2023-03-12T10:55:36.024Z,-1.62
2023-03-12T10:57:41.787Z,-1.56
2023-03-12T10:58:44.033Z,-1.78
2023-03-12T10:59:46.684Z,-1.65
2023-03-12T11:01:49.869Z,-1.59
2023-03-12T11:02:55.088Z,-1.31
2023-03-12T11:04:54.926Z,-0.91
2023-03-12T11:05:59.825Z,-0.79
2023-03-12T11:08:01.597Z,-1.27
2023-03-12T11:09:16.794Z,-1.39
2023-03-12T11:11:06.228Z,-1.07
2023-03-12T11:16:27.195Z,-0.63
2023-03-12T11:17:23.429Z,-0.24
2023-03-12T11:19:31.305Z,-0.01
2023-03-12T11:20:30.353Z,-0.04
2023-03-12T11:21:30.667Z,-0.17
2023-03-12T11:22:34.720Z,-0.32
2023-03-12T11:23:32.113Z,-0.37
2023-03-12T11:24:32.432Z,-0.66
2023-03-12T11:25:32.628Z,-0.53
2023-03-12T11:27:51.118Z,-0.6
2023-03-12T11:28:44.844Z,-0.86
2023-03-12T11:29:48.911Z,-0.83
2023-03-12T11:30:47.778Z,-0.77
2023-03-12T11:32:50.661Z,-0.77
2023-03-12T11:33:53.167Z,-0.66
2023-03-12T11:34:51.806Z,-1.11
2023-03-12T12:26:09.213Z,-0.26
2023-03-12T12:36:28.261Z,0.01
2023-03-12T12:41:50.138Z,-0.19
2023-03-12T12:43:57.127Z,-0.13
2023-03-12T12:44:57.825Z,-0.17
2023-03-12T12:45:59.695Z,-0.15
2023-03-12T12:47:03.974Z,-0.05
2023-03-12T12:50:04.742Z,-0.16
2023-03-12T12:51:08.778Z,0.04
2023-03-12T13:01:40.916Z,0.09
2023-03-12T13:02:43.593Z,-0.05
2023-03-12T13:03:42.176Z,0.13
2023-03-12T13:04:41.902Z,0.25
2023-03-12T13:07:47.025Z,0.57
2023-03-12T13:09:51.623Z,0.44
2023-03-12T13:11:55.581Z,0.5
2023-03-12T13:12:56.792Z,0.76
2023-03-12T13:14:58.539Z,0.17
2023-03-12T13:18:18.351Z,0.35
2023-03-12T13:20:19.187Z,-0.03
2023-03-12T13:27:41.109Z,-0.01
2023-03-12T13:29:40.957Z,-0.4
2023-03-12T13:31:41.809Z,-0.77
2023-03-12T13:34:46.949Z,-1
2023-03-12T13:36:52.303Z,-1.03
2023-03-12T13:41:00.181Z,-1.03
2023-03-12T13:42:01.186Z,-1.02
2023-03-12T13:48:18.138Z,-0.84
2023-03-12T13:49:18.473Z,-0.77
2023-03-12T13:50:17.098Z,-0.9
2023-03-12T13:51:21.661Z,-0.94
2023-03-12T13:54:28.008Z,-1
2023-03-12T13:55:29.057Z,-1.06
2023-03-12T13:56:29.563Z,-1.11
2023-03-12T13:58:27.900Z,-1.13
2023-03-12T13:59:29.993Z,-1.16
2023-03-12T14:00:38.291Z,-1.18
2023-03-12T14:01:36.798Z,-1.28
2023-03-12T14:02:37.174Z,-1.25
2023-03-12T14:03:42.460Z,-1.31
2023-03-12T14:04:39.589Z,-1.35
2023-03-12T14:17:05.431Z,-0.83
2023-03-12T14:19:06.682Z,-0.8
2023-03-12T14:21:15.451Z,-0.77
2023-03-12T14:22:14.470Z,-0.81
2023-03-12T14:23:17.460Z,-0.74
2023-03-12T14:26:27.476Z,-0.73
2023-03-12T14:27:25.726Z,-0.74
2023-03-12T14:28:24.558Z,-0.9
2023-03-12T14:30:32.268Z,-0.78
2023-03-12T14:31:25.915Z,-0.78
2023-03-12T14:32:32.609Z,-0.74
2023-03-12T14:34:38.812Z,-0.91
2023-03-12T14:37:44.133Z,-1.01
2023-03-12T14:38:44.717Z,-1.07
2023-03-12T14:42:52.809Z,-0.76
2023-03-12T14:43:54.142Z,-0.72
2023-03-12T14:47:01.025Z,-0.84
2023-03-12T14:47:59.403Z,-0.83
2023-03-12T14:48:59.683Z,-0.91
2023-03-12T14:50:00.205Z,-0.96
2023-03-12T14:51:01.581Z,-0.93
2023-03-12T14:52:00.685Z,-0.91
2023-03-12T14:56:44.614Z,-1.02
2023-03-12T14:57:42.157Z,-1.01
2023-03-12T14:58:45.759Z,-1.09
2023-03-12T14:59:55.788Z,-1.15
2023-03-12T15:00:57.433Z,-1.14
2023-03-12T15:01:50.857Z,-1.11
2023-03-12T15:02:52.649Z,-1.1
2023-03-12T15:03:57.395Z,-1.06
2023-03-12T15:04:57.893Z,-0.99
2023-03-12T15:05:56.340Z,-1.12
2023-03-12T15:06:59.843Z,-1.16
2023-03-12T15:08:03.050Z,-1.08
2023-03-12T15:09:03.835Z,-1.12
2023-03-12T15:10:06.373Z,-1.09
2023-03-12T15:11:04.274Z,-1.14
2023-03-12T15:12:08.581Z,-1.15
2023-03-12T15:13:06.327Z,-1.13
2023-03-12T15:14:14.447Z,-1.16
2023-03-12T15:15:10.961Z,-1.17
2023-03-12T15:16:09.158Z,-1.14
2023-03-12T15:17:14.975Z,-1.31
2023-03-12T15:19:21.732Z,-1.57
2023-03-12T15:20:21.022Z,-1.53
2023-03-12T15:21:21.348Z,-1.56
2023-03-12T15:22:22.572Z,-1.54
2023-03-12T15:23:21.618Z,-1.61
2023-03-12T15:24:21.450Z,-1.66
2023-03-12T15:25:32.019Z,-1.63
2023-03-12T15:26:30.821Z,-1.69
2023-03-12T15:27:33.541Z,-1.76
2023-03-12T15:28:33.102Z,-1.72
2023-03-12T15:29:31.313Z,-1.69
2023-03-12T15:30:32.843Z,-1.81
2023-03-12T15:32:38.119Z,-1.9
2023-03-12T15:33:36.262Z,-1.89
2023-03-12T15:34:39.029Z,-1.96
2023-03-12T15:35:43.240Z,-2.02
2023-03-12T15:36:49.804Z,-2.09
2023-03-12T15:37:50.852Z,-2.1
2023-03-12T15:38:53.460Z,-2.16
2023-03-12T15:39:49.909Z,-2.13
2023-03-12T15:40:52.486Z,-2.14
2023-03-12T15:41:51.033Z,-2.16
2023-03-12T15:42:50.652Z,-2.2
2023-03-12T15:43:56.440Z,-2.24
2023-03-12T15:44:57.218Z,-2.23
2023-03-12T15:46:02.083Z,-2.36
2023-03-12T15:47:09.752Z,-2.24
2023-03-12T15:48:03.470Z,-2.25
2023-03-12T15:49:02.776Z,-2.3
2023-03-12T15:50:12.517Z,-2.32
2023-03-12T15:56:23.082Z,-2.48
2023-03-12T15:57:24.136Z,-2.49
2023-03-12T15:59:28.362Z,-2.58
2023-03-12T16:01:28.534Z,-2.61
2023-03-12T16:03:30.741Z,-2.55
2023-03-12T16:04:31.151Z,-2.65
2023-03-12T16:05:34.843Z,-2.6
2023-03-12T16:06:32.186Z,-2.53
2023-03-12T16:07:32.793Z,-2.45
2023-03-12T16:09:35.961Z,-2.58
2023-03-12T16:10:37.528Z,-2.61
2023-03-12T16:11:38.574Z,-2.56
2023-03-12T16:12:38.074Z,-2.55
2023-03-12T16:13:37.443Z,-2.58
2023-03-12T16:14:38.286Z,-2.59
2023-03-12T16:15:39.308Z,-2.61
2023-03-12T16:16:39.018Z,-2.67
2023-03-12T16:17:39.124Z,-2.68
2023-03-12T16:18:40.002Z,-2.62
2023-03-12T16:19:39.993Z,-2.65
2023-03-12T16:20:40.261Z,-2.68
2023-03-12T16:21:40.890Z,-2.68
2023-03-12T16:22:44.676Z,-2.72
2023-03-12T16:23:43.599Z,-2.85
2023-03-12T16:24:42.362Z,-2.88
2023-03-12T16:25:51.676Z,-2.86
2023-03-12T16:28:48.885Z,-2.88
2023-03-12T16:29:48.384Z,-2.85
2023-03-12T16:30:48.904Z,-2.88
2023-03-12T16:32:50.733Z,-2.92
2023-03-12T16:33:51.009Z,-2.9
2023-03-12T16:34:51.524Z,-2.84
2023-03-12T16:35:52.604Z,-2.92
2023-03-12T16:36:52.891Z,-2.97
2023-03-12T16:37:52.729Z,-2.94
2023-03-12T16:38:55.943Z,-2.99
2023-03-12T16:39:54.831Z,-2.98
2023-03-12T16:40:54.385Z,-2.96
2023-03-12T16:41:55.679Z,-3.01
2023-03-12T16:42:55.759Z,-3.06
2023-03-12T16:43:55.658Z,-3.06
2023-03-12T16:44:55.596Z,-3.1
2023-03-12T16:45:55.826Z,-3.15
2023-03-12T16:46:56.578Z,-3.08
2023-03-12T16:49:01.825Z,-3.16
2023-03-12T16:50:01.671Z,-3.17
2023-03-12T16:51:02.105Z,-3.18
2023-03-12T16:52:03.418Z,-3.23
2023-03-12T16:53:03.717Z,-3.24
2023-03-12T16:54:10.834Z,-3.24